Home > Products > Valid Products > TAF

000
FTUS46 KEKA 290107 AAA
TAFACV
TAF AMD
KACV 290107Z 2901/2924 30006KT 6SM BR OVC003
     FM290600 22003KT 4SM BR OVC004
     FM290900 19003KT 1SM -DZ BR OVC003
     FM291200 27003KT 1/2SM -DZ FG OVC003=



000
FTUS46 KEKA 290107 AAA
TAFACV
TAF AMD
KACV 290107Z 2901/2924 30006KT 6SM BR OVC003
     FM290600 22003KT 4SM BR OVC004
     FM290900 19003KT 1SM -DZ BR OVC003
     FM291200 27003KT 1/2SM -DZ FG OVC003=



000
FTUS46 KEKA 282329
TAFCEC
TAF
KCEC 282329Z 2900/2924 28008KT P6SM BKN006 OVC010
     FM290300 17005KT 4SM BR OVC005
     FM290600 VRB03KT 2SM BR OVC004
     FM291100 VRB03KT 1/2SM -DZ FG OVC002
     FM291700 19004KT 6SM BR OVC006=



000
FTUS46 KEKA 282329
TAFACV
TAF
KACV 282329Z 2900/2924 29009KT P6SM BKN007 OVC010
      TEMPO 2900/2901 SCT007 SCT010
     FM290400 VRB03KT 6SM BR OVC006
     FM290600 22003KT 4SM BR OVC004
     FM290900 19003KT 1SM -DZ BR OVC003
     FM291200 27003KT 1/2SM -DZ FG OVC003=



000
FTUS46 KEKA 282329
TAFUKI
TAF
KUKI 282329Z 2900/2924 12005KT P6SM FEW250
     FM290600 VRB03KT P6SM FEW015 SCT250=



000
FTUS46 KEKA 282230 AAB
TAFACV
TAF AMD
KACV 282230Z 2823/2918 29009KT P6SM BKN007 OVC010
      TEMPO 2823/2901 SCT007 SCT010
     FM290400 VRB03KT 6SM BR OVC006
     FM290600 22003KT 4SM BR OVC004
     FM290900 19003KT 1SM -DZ BR OVC003
     FM291200 27003KT 1/2SM -DZ FG OVC003=



000
FTUS46 KEKA 282221 AAB
TAFCEC
TAF AMD
KCEC 282221Z 2822/2918 28008KT P6SM BKN006 OVC010
     FM290300 17005KT 4SM BR OVC005
     FM290600 VRB03KT 2SM BR OVC004
     FM291100 VRB03KT 1/2SM -DZ FG OVC002
     FM291700 19004KT 6SM BR OVC006=



000
FTUS46 KEKA 282021 AAA
TAFCEC
TAF AMD
KCEC 282021Z 2820/2918 21007KT P6SM BKN007 OVC010
      TEMPO 2821/2822 BKN005
     FM282200 19007KT P6SM BKN007 OVC011
      TEMPO 2822/2823 SCT007 SCT010
     FM290000 24009KT 6SM BR BKN007 BKN015
     FM290300 17005KT 4SM BR OVC005=



000
FTUS46 KEKA 282017 AAA
TAFACV
TAF AMD
KACV 282017Z 2820/2918 29009KT P6SM BKN006 BKN009
      TEMPO 2821/2823 BKN009
     FM282300 30009KT P6SM BKN011 BKN250
      TEMPO 2823/2901 SCT011
     FM290100 30006KT P6SM SCT007 BKN011
     FM290500 VRB03KT 5SM BR OVC007
     FM290900 19003KT 1SM -DZ BR OVC005=



000
FTUS46 KEKA 281747 CCA
TAFCEC
TAF COR
KCEC 281747Z 2818/2918 21007KT P6SM BKN006 OVC010
      TEMPO 2818/2820 BKN009
     FM282000 19007KT P6SM SCT007 BKN010
      TEMPO 2820/2823 FEW007 SCT010 BKN250
     FM290000 24009KT 6SM BR BKN007 BKN015
     FM290300 17005KT 4SM BR OVC005=



000
FTUS46 KEKA 281741
TAFCEC
TAF
KCEC 281741Z 2818/2918 21007KT P6SM BKN005 OVC010
      TEMPO 2818/2820 BKN007
     FM282000 19007KT P6SM SCT007 BKN010
      TEMPO 2820/2823 FEW007 SCT010 BKN250
     FM290000 24009KT 6SM BR BKN007 BKN015
     FM290300 17005KT 4SM BR OVC005=



000
FTUS46 KEKA 281741
TAFACV
TAF
KACV 281741Z 2818/2918 31009KT P6SM SCT007 BKN012
     FM282000 30009KT P6SM SCT015 BKN250
      TEMPO 2822/2824 BKN015
     FM290000 30006KT P6SM SCT007 BKN015
     FM290500 VRB03KT 5SM BR OVC007
     FM290900 19003KT 1SM -DZ BR OVC005=



000
FTUS46 KEKA 281741
TAFUKI
TAF
KUKI 281741Z 2818/2918 34005KT P6SM SCT250
     FM290000 32005KT P6SM BKN250
     FM290600 VRB03KT P6SM FEW015 SCT250=



000
FTUS46 KEKA 281741
TAFCEC
TAF
KCEC 281741Z 2818/2918 21007KT P6SM BKN005 OVC010
      TEMPO 2818/2820 BKN007
     FM282000 19007KT P6SM SCT007 BKN010
      TEMPO 2820/2823 FEW007 SCT010 BKN250
     FM290000 24009KT 6SM BR BKN007 BKN015
     FM290300 17005KT 4SM BR OVC005=



000
FTUS46 KEKA 281741
TAFUKI
TAF
KUKI 281741Z 2818/2918 34005KT P6SM SCT250
     FM290000 32005KT P6SM BKN250
     FM290600 VRB03KT P6SM FEW015 SCT250=



000
FTUS46 KEKA 281741
TAFACV
TAF
KACV 281741Z 2818/2918 31009KT P6SM SCT007 BKN012
     FM282000 30009KT P6SM SCT015 BKN250
      TEMPO 2822/2824 BKN015
     FM290000 30006KT P6SM SCT007 BKN015
     FM290500 VRB03KT 5SM BR OVC007
     FM290900 19003KT 1SM -DZ BR OVC005=



000
FTUS46 KEKA 281519 CCA
TAFACV
TAF COR
KACV 281519Z 2815/2912 24006KT P6SM SCT006 BKN009
      TEMPO 2817/2818 FEW006 SCT010
     FM281800 28007KT P6SM BKN015
     FM282200 30009KT P6SM SCT015 BKN250
     FM290100 30006KT P6SM SCT007 BKN015
     FM290500 VRB03KT 5SM BR OVC007=



000
FTUS46 KEKA 281516 AAA
TAFCEC
TAF AMD
KCEC 281516Z 2815/2912 34005KT P6SM SCT004 BKN006 BKN250
      TEMPO 2816/2818 SCT006 BKN010
     FM281800 19007KT P6SM BKN010
      TEMPO 2821/2823 SCT010 BKN250
     FM290000 21003KT 3SM BR OVC006=



000
FTUS46 KEKA 281510 AAA
TAFACV
TAF AMD
KACV 281510Z 2815/2912 24006KT P6SM SCT006 BKN010
      TEMPO 2816/2818 FEW006 SCT010
     FM281800 28007KT P6SM BKN015
     FM282200 30009KT P6SM SCT015 BKN250
     FM290100 30006KT P6SM SCT007 BKN015
     FM290500 VRB03KT 5SM BR OVC007=



000
FTUS46 KEKA 281510 AAA
TAFACV
TAF AMD
KACV 281510Z 2815/2912 24006KT P6SM SCT006 BKN010
      TEMPO 2816/2818 FEW006 SCT010
     FM281800 28007KT P6SM BKN015
     FM282200 30009KT P6SM SCT015 BKN250
     FM290100 30006KT P6SM SCT007 BKN015
     FM290500 VRB03KT 5SM BR OVC007=



000
FTUS46 KEKA 281139
TAFUKI
TAF
KUKI 281139Z 2812/2912 00000KT P6SM SKC
     FM290000 32007KT P6SM SCT250
     FM290400 00000KT P6SM SKC=



000
FTUS46 KEKA 281139
TAFACV
TAF
KACV 281139Z 2812/2912 00000KT 3SM BR OVC009
     FM281600 30003KT P6SM OVC007
     FM281800 30006KT P6SM BKN010
     FM290500 VRB03KT 5SM BR OVC007=



000
FTUS46 KEKA 281139
TAFACV
TAF
KACV 281139Z 2812/2912 00000KT 3SM BR OVC009
     FM281600 30003KT P6SM OVC007
     FM281800 30006KT P6SM BKN010
     FM290500 VRB03KT 5SM BR OVC007=



000
FTUS46 KEKA 281139
TAFUKI
TAF
KUKI 281139Z 2812/2912 00000KT P6SM SKC
     FM290000 32007KT P6SM SCT250
     FM290400 00000KT P6SM SKC=



000
FTUS46 KEKA 281139
TAFCEC
TAF
KCEC 281139Z 2812/2912 14006KT P6SM OVC009
     FM281500 19004KT 3SM BR OVC007
     FM281800 19007KT P6SM BKN010
     FM290000 21003KT 3SM BR OVC006=



000
FTUS46 KEKA 281139
TAFCEC
TAF
KCEC 281139Z 2812/2912 14006KT P6SM OVC009
     FM281500 19004KT 3SM BR OVC007
     FM281800 19007KT P6SM BKN010
     FM290000 21003KT 3SM BR OVC006=



000
FTUS46 KEKA 280526
TAFUKI
TAF
KUKI 280526Z 2806/2906 00000KT P6SM SKC
     FM281900 26005KT P6SM SKC=



000
FTUS46 KEKA 280526
TAFACV
TAF
KACV 280526Z 2806/2906 00000KT 3SM BR OVC004
     FM280800 00000KT 1/4SM FG OVC001
     FM281700 30005KT 3SM BR OVC004
     FM282000 30006KT P6SM OVC009
     FM290000 30005KT 6SM BR OVC006=



000
FTUS46 KEKA 280526
TAFCEC
TAF
KCEC 280526Z 2806/2906 18009KT 1SM BR OVC005
     FM280900 VRB03KT 1SM BR OVC003
     FM281100 00000KT 1/4SM FG OVC001
     FM281700 30005KT 3SM BR OVC004
     FM282100 30008KT P6SM OVC008=



000
FTUS46 KEKA 280526
TAFUKI
TAF
KUKI 280526Z 2806/2906 00000KT P6SM SKC
     FM281900 26005KT P6SM SKC=



000
FTUS46 KEKA 280218 AAB
TAFCEC
TAF AMD
KCEC 280218Z 2802/2824 27004KT 3SM BR OVC004
     FM281100 00000KT 1/2SM FG OVC002
     FM281700 30005KT 3SM BR OVC004
     FM282100 30008KT P6SM OVC008=



000
FTUS46 KEKA 280217 AAA
TAFUKI
TAF AMD
KUKI 280217Z 2802/2824 01009KT P6SM SKC
     FM280700 00000KT P6SM SKC
     FM281900 26005KT P6SM SKC=



000
FTUS46 KEKA 280131 AAA
TAFCEC
TAF AMD
KCEC 280131Z 2802/2824 27004KT 1SM BR OVC004
     FM281100 00000KT 1/2SM FG OVC002
     FM281700 30005KT 3SM BR OVC004
     FM282100 30008KT P6SM OVC008=



000
FTUS46 KEKA 280131 AAA
TAFCEC
TAF AMD
KCEC 280131Z 2802/2824 27004KT 1SM BR OVC004
     FM281100 00000KT 1/2SM FG OVC002
     FM281700 30005KT 3SM BR OVC004
     FM282100 30008KT P6SM OVC008=



000
FTUS46 KEKA 280002 CCA
TAFCEC
TAF COR
KCEC 280002Z 2800/2824 19005KT 4SM BR OVC004
     FM280400 17005KT 2SM BR OVC004
     FM281100 00000KT 1/2SM FG OVC002
     FM281700 30005KT 3SM BR OVC004
     FM282100 30008KT P6SM OVC008=



000
FTUS46 KEKA 280002 CCA
TAFCEC
TAF COR
KCEC 280002Z 2800/2824 19005KT 4SM BR OVC004
     FM280400 17005KT 2SM BR OVC004
     FM281100 00000KT 1/2SM FG OVC002
     FM281700 30005KT 3SM BR OVC004
     FM282100 30008KT P6SM OVC008=



000
FTUS46 KEKA 272341
TAFUKI
TAF
KUKI 272341Z 2800/2824 31006KT P6SM SKC
     FM280700 00000KT P6SM SKC
     FM281900 26005KT P6SM SKC=



000
FTUS46 KEKA 272341
TAFCEC
TAF
KCEC 272341Z 2800/2824 18007KT P6SM OVC006
     FM280400 17005KT 3SM BR OVC004
     FM281100 00000KT 1/2SM FG OVC002
     FM281700 30005KT 3SM BR OVC004
     FM282100 30008KT P6SM OVC008=



000
FTUS46 KEKA 272341
TAFACV
TAF
KACV 272341Z 2800/2824 31005KT P6SM OVC005
     FM280300 01003KT 3SM BR OVC002
     FM280600 00000KT 1/2SM FG OVC002
     FM281700 30005KT 3SM BR OVC006
     FM282000 30006KT P6SM OVC009=



000
FTUS46 KEKA 272341
TAFUKI
TAF
KUKI 272341Z 2800/2824 31006KT P6SM SKC
     FM280700 00000KT P6SM SKC
     FM281900 26005KT P6SM SKC=



000
FTUS46 KEKA 272341
TAFCEC
TAF
KCEC 272341Z 2800/2824 18007KT P6SM OVC006
     FM280400 17005KT 3SM BR OVC004
     FM281100 00000KT 1/2SM FG OVC002
     FM281700 30005KT 3SM BR OVC004
     FM282100 30008KT P6SM OVC008=



000
FTUS46 KEKA 272341
TAFACV
TAF
KACV 272341Z 2800/2824 31005KT P6SM OVC005
     FM280300 01003KT 3SM BR OVC002
     FM280600 00000KT 1/2SM FG OVC002
     FM281700 30005KT 3SM BR OVC006
     FM282000 30006KT P6SM OVC009=



000
FTUS46 KEKA 272311 AAB
TAFACV
TAF AMD
KACV 272311Z 2723/2818 32007KT P6SM OVC006
     FM280400 26005KT 6SM BR BKN008
     FM280800 VRB03KT 1SM BR OVC004=



000
FTUS46 KEKA 272310 AAA
TAFCEC
TAF AMD
KCEC 272310Z 2723/2818 29007KT 6SM BR OVC008
     FM280400 17005KT 4SM BR BKN005
     FM280800 16003KT 1SM BR OVC003=



000
FTUS46 KEKA 272241 AAA
TAFACV
TAF AMD
KACV 272241Z 2723/2818 29006KT P6SM BKN008
     FM280000 29008KT P6SM SCT010
     FM280400 26005KT 6SM BR BKN008
     FM280800 VRB03KT 1SM BR OVC004=



000
FTUS46 KEKA 271734
TAFCEC
TAF
KCEC 271734Z 2718/2818 33004KT P6SM OVC007
     FM271900 27008KT 6SM HZ BKN009
     FM272300 21006KT 6SM BR SCT010
     FM280400 17005KT 4SM BR BKN005
     FM280800 16003KT 1SM BR OVC003=



000
FTUS46 KEKA 271734
TAFUKI
TAF
KUKI 271734Z 2718/2818 00000KT P6SM SCT010
     FM272000 15008KT P6SM SKC
     FM280000 32008KT P6SM SKC
     FM280700 VRB03KT P6SM SKC=



000
FTUS46 KEKA 271734
TAFACV
TAF
KACV 271734Z 2718/2818 29006KT P6SM OVC008
     FM272200 29008KT P6SM SCT010
     FM280400 26005KT 6SM BR BKN008
     FM280800 VRB03KT 1SM BR OVC004=



000
FTUS46 KEKA 271734
TAFACV
TAF
KACV 271734Z 2718/2818 29006KT P6SM OVC008
     FM272200 29008KT P6SM SCT010
     FM280400 26005KT 6SM BR BKN008
     FM280800 VRB03KT 1SM BR OVC004=



000
FTUS46 KEKA 271734
TAFUKI
TAF
KUKI 271734Z 2718/2818 00000KT P6SM SCT010
     FM272000 15008KT P6SM SKC
     FM280000 32008KT P6SM SKC
     FM280700 VRB03KT P6SM SKC=



000
FTUS46 KEKA 271734
TAFCEC
TAF
KCEC 271734Z 2718/2818 33004KT P6SM OVC007
     FM271900 27008KT 6SM HZ BKN009
     FM272300 21006KT 6SM BR SCT010
     FM280400 17005KT 4SM BR BKN005
     FM280800 16003KT 1SM BR OVC003=



000
FTUS46 KEKA 271246 AAA
TAFACV
TAF AMD
KACV 271246Z 2713/2812 00000KT P6SM SCT006 OVC010
      TEMPO 2713/2716 3SM BR BKN003
     FM271800 29006KT 6SM HZ BKN005
     FM272200 29008KT P6SM SCT010
     FM280300 26005KT 6SM BR BKN008
     FM280800 VRB03KT 1SM BR OVC004=



000
FTUS46 KEKA 271145
TAFCEC
TAF
KCEC 271145Z 2712/2812 00000KT P6SM OVC006
     FM271900 27008KT 6SM HZ BKN005
     FM272300 21006KT 6SM BR SCT010
     FM280300 17005KT 4SM BR BKN005
     FM280800 16003KT 1SM BR OVC003=



000
FTUS46 KEKA 271145
TAFUKI
TAF
KUKI 271145Z 2712/2812 00000KT P6SM OVC005
     FM271600 13004KT P6SM SCT010
     FM272000 15008KT P6SM SKC
     FM280000 32008KT P6SM SKC
     FM280700 VRB03KT P6SM SKC=



000
FTUS46 KEKA 271145
TAFUKI
TAF
KUKI 271145Z 2712/2812 00000KT P6SM OVC005
     FM271600 13004KT P6SM SCT010
     FM272000 15008KT P6SM SKC
     FM280000 32008KT P6SM SKC
     FM280700 VRB03KT P6SM SKC=



000
FTUS46 KEKA 271145
TAFACV
TAF
KACV 271145Z 2712/2812 00000KT P6SM BKN007 OVC011
     FM271300 31003KT 2SM BR OVC002
     FM271800 29006KT 6SM HZ BKN005
     FM272200 29008KT P6SM SCT010
     FM280300 26005KT 6SM BR BKN008
     FM280800 VRB03KT 1SM BR OVC004=



000
FTUS46 KEKA 271145
TAFACV
TAF
KACV 271145Z 2712/2812 00000KT P6SM BKN007 OVC011
     FM271300 31003KT 2SM BR OVC002
     FM271800 29006KT 6SM HZ BKN005
     FM272200 29008KT P6SM SCT010
     FM280300 26005KT 6SM BR BKN008
     FM280800 VRB03KT 1SM BR OVC004=



000
FTUS46 KEKA 271145
TAFCEC
TAF
KCEC 271145Z 2712/2812 00000KT P6SM OVC006
     FM271900 27008KT 6SM HZ BKN005
     FM272300 21006KT 6SM BR SCT010
     FM280300 17005KT 4SM BR BKN005
     FM280800 16003KT 1SM BR OVC003=



000
FTUS46 KEKA 271110 AAA
TAFACV
TAF AMD
KACV 271110Z 2711/2806 00000KT P6SM BKN007 OVC011
     FM271300 31003KT 2SM BR OVC002
     FM271800 29006KT 6SM HZ BKN005
     FM272200 29008KT P6SM SCT010
     FM280300 26005KT 6SM BR BKN008=



000
FTUS46 KEKA 271110 AAC
TAFCEC
TAF AMD
KCEC 271110Z 2711/2806 00000KT P6SM OVC006
     FM271900 27008KT 6SM HZ BKN005
     FM272300 21006KT 6SM BR SCT010
     FM280300 17005KT 4SM BR BKN005=



000
FTUS46 KEKA 271110 AAC
TAFCEC
TAF AMD
KCEC 271110Z 2711/2806 00000KT P6SM OVC006
     FM271900 27008KT 6SM HZ BKN005
     FM272300 21006KT 6SM BR SCT010
     FM280300 17005KT 4SM BR BKN005=



000
FTUS46 KEKA 271110 AAB
TAFUKI
TAF AMD
KUKI 271110Z 2711/2806 00000KT P6SM BKN004
     FM271600 13004KT P6SM SCT010
     FM272000 15008KT P6SM SKC
     FM280000 32008KT P6SM SKC
     FM280400 15004KT P6SM SKC=



000
FTUS46 KEKA 271110 AAA
TAFACV
TAF AMD
KACV 271110Z 2711/2806 00000KT P6SM BKN007 OVC011
     FM271300 31003KT 2SM BR OVC002
     FM271800 29006KT 6SM HZ BKN005
     FM272200 29008KT P6SM SCT010
     FM280300 26005KT 6SM BR BKN008=



000
FTUS46 KEKA 270932 AAB
TAFCEC
TAF AMD
KCEC 270932Z 2710/2806 08006KT P6SM OVC010
     FM271900 27008KT 6SM HZ BKN005
     FM272300 21006KT 6SM BR SCT010
     FM280300 17005KT 4SM BR BKN005=



000
FTUS46 KEKA 270932 AAB
TAFCEC
TAF AMD
KCEC 270932Z 2710/2806 08006KT P6SM OVC010
     FM271900 27008KT 6SM HZ BKN005
     FM272300 21006KT 6SM BR SCT010
     FM280300 17005KT 4SM BR BKN005=



000
FTUS46 KEKA 270852 AAA
TAFCEC
TAF AMD
KCEC 270852Z 2709/2806 16012KT P6SM OVC007
     FM271000 VRB03KT 2SM BR OVC002
     FM271900 27008KT 6SM HZ BKN005
     FM272300 21006KT 6SM BR SCT010
     FM280300 17005KT 4SM BR BKN005=



000
FTUS46 KEKA 270852 AAA
TAFUKI
TAF AMD
KUKI 270852Z 2709/2806 16004KT P6SM SKC
     FM271600 13004KT P6SM SCT010
     FM272000 15008KT P6SM SKC
     FM280000 32008KT P6SM SKC
     FM280400 15004KT P6SM SKC=



000
FTUS46 KEKA 270542
TAFACV
TAF
KACV 270542Z 2706/2806 13004KT P6SM OVC011
     FM270800 13003KT 6SM BR OVC008
     FM271000 VRB03KT 4SM BR OVC006
     FM271300 31003KT 2SM BR OVC002
     FM271800 29006KT 6SM HZ BKN005
     FM272200 29008KT P6SM SCT010
     FM280300 26005KT 6SM BR BKN008=



000
FTUS46 KEKA 270542
TAFCEC
TAF
KCEC 270542Z 2706/2806 18008KT P6SM OVC008
     FM270800 18005KT 4SM BR OVC005
     FM271000 VRB03KT 2SM BR OVC002
     FM271900 27008KT 6SM HZ BKN005
     FM272300 21006KT 6SM BR SCT010
     FM280300 17005KT 4SM BR BKN005=



000
FTUS46 KEKA 270542
TAFUKI
TAF
KUKI 270542Z 2706/2806 17008KT P6SM SKC
     FM270900 16006KT P6SM BKN006
     FM271600 13004KT P6SM SCT010
     FM272000 15008KT P6SM SKC
     FM280000 32008KT P6SM SKC
     FM280400 15004KT P6SM SKC=



000
FTUS46 KEKA 270255 AAA
TAFCEC
TAF AMD
KCEC 270255Z 2703/2724 30008KT P6SM SCT010
      TEMPO 2704/2705 BKN010
     FM270500 VRB05KT 6SM BR BKN008
     FM270700 18005KT 4SM BR OVC005
     FM270900 21004KT 2SM BR OVC003
     FM271900 21007KT 6SM HZ BKN005=



000
FTUS46 KEKA 270255 AAA
TAFCEC
TAF AMD
KCEC 270255Z 2703/2724 30008KT P6SM SCT010
      TEMPO 2704/2705 BKN010
     FM270500 VRB05KT 6SM BR BKN008
     FM270700 18005KT 4SM BR OVC005
     FM270900 21004KT 2SM BR OVC003
     FM271900 21007KT 6SM HZ BKN005=



000
FTUS46 KEKA 270142 AAA
TAFACV
TAF AMD
KACV 270142Z 2702/2724 32007KT P6SM SCT008
      TEMPO 2703/2704 BKN008
     FM270400 31004KT 6SM BR BKN006
     FM270900 VRB03KT 4SM BR OVC003
     FM271200 VRB03KT 2SM BR OVC002
     FM271900 28006KT 6SM HZ OVC005=



000
FTUS46 KEKA 262349
TAFUKI
TAF
KUKI 262349Z 2700/2724 14008KT P6SM SKC
     FM270300 15004KT P6SM SKC
     FM270700 16006KT P6SM BKN006
     FM271600 13006KT P6SM SCT010
     FM272000 15008KT P6SM SKC=



000
FTUS46 KEKA 262349
TAFCEC
TAF
KCEC 262349Z 2700/2724 29010KT P6SM BKN010
      TEMPO 2700/2702 SCT010
     FM270200 VRB05KT 6SM BR BKN008
     FM270600 18005KT 4SM BR OVC005
     FM270900 21004KT 2SM BR OVC003
     FM271900 21007KT 6SM HZ BKN005=



000
FTUS46 KEKA 262349
TAFACV
TAF
KACV 262349Z 2700/2724 27006KT P6SM BKN008
     FM270300 31004KT 6SM BR OVC006
     FM270900 VRB03KT 4SM BR OVC003
     FM271200 VRB03KT 2SM BR OVC002
     FM271900 28006KT 6SM HZ OVC005=



000
FTUS46 KEKA 262349
TAFUKI
TAF
KUKI 262349Z 2700/2724 14008KT P6SM SKC
     FM270300 15004KT P6SM SKC
     FM270700 16006KT P6SM BKN006
     FM271600 13006KT P6SM SCT010
     FM272000 15008KT P6SM SKC=



000
FTUS46 KEKA 262349
TAFACV
TAF
KACV 262349Z 2700/2724 27006KT P6SM BKN008
     FM270300 31004KT 6SM BR OVC006
     FM270900 VRB03KT 4SM BR OVC003
     FM271200 VRB03KT 2SM BR OVC002
     FM271900 28006KT 6SM HZ OVC005=



000
FTUS46 KEKA 262349
TAFCEC
TAF
KCEC 262349Z 2700/2724 29010KT P6SM BKN010
      TEMPO 2700/2702 SCT010
     FM270200 VRB05KT 6SM BR BKN008
     FM270600 18005KT 4SM BR OVC005
     FM270900 21004KT 2SM BR OVC003
     FM271900 21007KT 6SM HZ BKN005=



000
FTUS46 KEKA 262111 AAA
TAFCEC
TAF AMD
KCEC 262111Z 2621/2718 18008KT P6SM OVC005
     FM262200 27007KT P6SM SCT007 SCT015
     FM270300 16005KT 3SM BR OVC008
     FM271000 VRB03KT 1SM BR OVC003=



000
FTUS46 KEKA 261725
TAFUKI
TAF
KUKI 261725Z 2618/2718 VRB03KT P6SM SKC
     FM262300 15006KT P6SM SKC
     FM270300 15004KT P6SM SKC
     FM271000 VRB03KT P6SM OVC006=



000
FTUS46 KEKA 261725
TAFACV
TAF
KACV 261725Z 2618/2718 30006KT P6SM OVC005
     FM262100 30009KT P6SM BKN007 OVC015
     FM270300 27004KT 6SM BR OVC007
     FM270900 VRB03KT 1SM BR OVC003=



000
FTUS46 KEKA 261725
TAFCEC
TAF
KCEC 261725Z 2618/2718 29004KT 5SM BR OVC004
     FM262100 30011KT P6SM SCT007 SCT015
     FM270300 16005KT 3SM BR OVC008
     FM271000 VRB03KT 1SM BR OVC003=



000
FTUS46 KEKA 261640 AAB
TAFUKI
TAF AMD
KUKI 261640Z 2617/2712 15004KT P6SM OVC006
     FM261800 VRB03KT P6SM SKC
     FM262300 36007KT P6SM SKC
     FM270300 15004KT P6SM SKC
     FM271000 VRB03KT P6SM OVC006=



000
FTUS46 KEKA 261415 AAA
TAFUKI
TAF AMD
KUKI 261415Z 2614/2712 15004KT P6SM OVC005
     FM261630 VRB03KT P6SM SKC
     FM262300 36007KT P6SM SKC
     FM270300 15004KT P6SM SKC
     FM271000 VRB03KT P6SM OVC006=



000
FTUS46 KEKA 261136
TAFCEC
TAF
KCEC 261136Z 2612/2712 15003KT P6SM OVC006
     FM261500 26010KT P6SM FEW003 BKN007 BKN015
     FM262100 30011KT P6SM SCT007 SCT015
     FM270300 16005KT 3SM BR OVC008
     FM271000 VRB03KT 1SM BR OVC005=



000
FTUS46 KEKA 261136
TAFACV
TAF
KACV 261136Z 2612/2712 14005KT P6SM OVC007
     FM261800 29006KT P6SM OVC007
     FM262100 30009KT P6SM BKN007 OVC015
     FM262300 30008KT P6SM SCT007 BKN015
     FM270300 27004KT 6SM BR BKN007 OVC015
     FM270900 VRB03KT 2SM BR OVC007=



000
FTUS46 KEKA 261136
TAFUKI
TAF
KUKI 261136Z 2612/2712 15005KT P6SM OVC007
     FM261500 13007KT P6SM SCT012
     FM262300 36007KT P6SM SKC
     FM270300 15004KT P6SM SKC
     FM271000 VRB03KT P6SM OVC006=



000
FTUS46 KEKA 261017 AAA
TAFUKI
TAF AMD
KUKI 261017Z 2610/2706 17004KT P6SM OVC007
     FM261500 13007KT P6SM SCT012
     FM262300 36007KT P6SM SKC
     FM270300 15004KT P6SM SKC=



000
FTUS46 KEKA 261017 AAA
TAFUKI
TAF AMD
KUKI 261017Z 2610/2706 17004KT P6SM OVC007
     FM261500 13007KT P6SM SCT012
     FM262300 36007KT P6SM SKC
     FM270300 15004KT P6SM SKC=



000
FTUS46 KEKA 261016 AAB
TAFACV
TAF AMD
KACV 261016Z 2610/2706 13005KT P6SM OVC007
     FM261800 29006KT P6SM OVC007
     FM262100 30009KT P6SM BKN007 OVC015
     FM262300 30008KT P6SM SCT007 BKN015
     FM270300 27004KT 6SM BR BKN007 OVC015=



000
FTUS46 KEKA 261016 AAB
TAFCEC
TAF AMD
KCEC 261016Z 2610/2706 18007KT P6SM OVC008
     FM261100 32003KT 3SM BR OVC003
     FM261500 26010KT P6SM FEW003 BKN007 BKN015
     FM262100 30011KT P6SM SCT007 SCT015=



000
FTUS46 KEKA 260654 AAA
TAFACV
TAF AMD
KACV 260654Z 2607/2706 15006KT P6SM OVC007
     FM260900 16004KT 3SM BR OVC004
     FM261800 29006KT P6SM OVC007
     FM262100 30009KT P6SM BKN007 OVC015
     FM262300 30008KT P6SM SCT007 BKN015
     FM270300 27004KT 6SM BR BKN007 OVC015=



000
FTUS46 KEKA 260653 AAA
TAFCEC
TAF AMD
KCEC 260653Z 2607/2706 16007KT P6SM FEW009
      TEMPO 2607/2609 SCT005 BKN007
     FM260900 17007KT 6SM BR OVC005
     FM261100 32003KT 3SM BR OVC003
     FM261500 26010KT P6SM FEW003 BKN007 BKN015
     FM262100 30011KT P6SM SCT007 SCT015=



000
FTUS46 KEKA 260539 CCA
TAFCEC
TAF COR
KCEC 260539Z 2606/2706 17012G20KT P6SM SCT005 SCT007
      TEMPO 2607/2609 SCT005 BKN007
     FM260900 17007KT 6SM BR OVC005
     FM261100 32003KT 3SM BR OVC003
     FM261500 26010KT P6SM FEW003 BKN007 BKN015
     FM262100 30011KT P6SM SCT007 SCT015=



000
FTUS46 KEKA 260538
TAFACV
TAF
KACV 260538Z 2606/2706 VRB04KT 6SM BR OVC006
     FM260900 16004KT 3SM BR OVC004
     FM261800 29006KT P6SM OVC007
     FM262100 30009KT P6SM BKN007 OVC015
     FM262300 30008KT P6SM SCT007 BKN015
     FM270300 27004KT 6SM BR BKN007 OVC015=



000
FTUS46 KEKA 260538
TAFCEC
TAF
KCEC 260538Z 2606/2706 17012G20KT P6SM SCT005 SCT007
      TEMPO 2607/2609 SCT005 BKN007
     FM260900 18010KT 6SM BR OVC005
     FM261100 32003KT 3SM BR OVC003
     FM261500 26010KT P6SM FEW003 BKN007 BKN015
     FM262100 30011KT P6SM SCT007 SCT015=



000
FTUS46 KEKA 260538
TAFUKI
TAF
KUKI 260538Z 2606/2706 16005KT P6SM FEW250
     FM261100 VRB03KT P6SM SCT009 BKN012
     FM261500 13007KT P6SM SCT012
     FM262300 36007KT P6SM SKC
     FM270300 15004KT P6SM SKC=



000
FTUS46 KEKA 260538
TAFUKI
TAF
KUKI 260538Z 2606/2706 16005KT P6SM FEW250
     FM261100 VRB03KT P6SM SCT009 BKN012
     FM261500 13007KT P6SM SCT012
     FM262300 36007KT P6SM SKC
     FM270300 15004KT P6SM SKC=



000
FTUS46 KEKA 260538
TAFCEC
TAF
KCEC 260538Z 2606/2706 17012G20KT P6SM SCT005 SCT007
      TEMPO 2607/2609 SCT005 BKN007
     FM260900 18010KT 6SM BR OVC005
     FM261100 32003KT 3SM BR OVC003
     FM261500 26010KT P6SM FEW003 BKN007 BKN015
     FM262100 30011KT P6SM SCT007 SCT015=



000
FTUS46 KEKA 260538
TAFACV
TAF
KACV 260538Z 2606/2706 VRB04KT 6SM BR OVC006
     FM260900 16004KT 3SM BR OVC004
     FM261800 29006KT P6SM OVC007
     FM262100 30009KT P6SM BKN007 OVC015
     FM262300 30008KT P6SM SCT007 BKN015
     FM270300 27004KT 6SM BR BKN007 OVC015=



000
FTUS46 KEKA 260243 AAA
TAFCEC
TAF AMD
KCEC 260243Z 2603/2624 17013KT P6SM SCT006 SCT008
     FM260400 16007KT P6SM SCT006 BKN008
     FM260600 18009KT 6SM BR BKN005
     FM260900 32003KT 3SM BR OVC003
     FM261500 26010KT P6SM BKN015=



    US Dept of Commerce
    National Oceanic and Atmospheric Administration
    National Weather Service
    1325 East West Highway
    Silver Spring, MD 20910
    Page Author: NWS Internet Services Team
Disclaimer
Information Quality
Credits
Glossary
Privacy Policy
Freedom of Information Act (FOIA)
About Us
Career Opportunities